Lakewood, Colorado
Current Conditions -  °F | °C
As of 11:47 AM on Saturday 25 Oct 2014 (Local Time) from KBJC Reporting Station
Clear Clear  
Wind Chill: 23°   Ceiling: Unl
Heat Index: 23°   Visibility: 50mi
Dew Point: -6°   Wind: 9mph
Humidity: 14%   Direction: 150°SSE
Pressure: 30.23"   Gusts: NA
Location:  39.71°N, 105.08°W
Report Text: KBJC 251747Z 15008KT 50SM SKC 23/M06 A3023
Loading
Personal Weather Stations






























Interactive Weather Map
Tropical Storm Tracking
New forecast layout! Learn more

10-Day Weather Forecast

Advertisements
Track Severe Weather on mobile